sensor_id;sensor_type;location;lat;lon;timestamp;temperature;humidity
32749;DHT22;19119;52.474;13.710;2023-11-21T00:01:06;7.90;99.90
32749;DHT22;19119;52.474;13.710;2023-11-21T00:03:33;7.90;99.90
32749;DHT22;19119;52.474;13.710;2023-11-21T00:05:59;7.90;99.90
32749;DHT22;19119;52.474;13.710;2023-11-21T00:08:25;7.70;99.90
32749;DHT22;19119;52.474;13.710;2023-11-21T00:10:51;7.80;99.90
32749;DHT22;19119;52.474;13.710;2023-11-21T00:13:16;7.90;99.90
32749;DHT22;19119;52.474;13.710;2023-11-21T00:15:42;7.70;99.90
32749;DHT22;19119;52.474;13.710;2023-11-21T00:18:07;7.70;99.90
32749;DHT22;19119;52.474;13.710;2023-11-21T00:20:32;7.80;99.90
32749;DHT22;19119;52.474;13.710;2023-11-21T00:22:58;7.70;99.90
32749;DHT22;19119;52.474;13.710;2023-11-21T00:25:24;7.80;99.90
32749;DHT22;19119;52.474;13.710;2023-11-21T00:27:50;7.80;99.90
32749;DHT22;19119;52.474;13.710;2023-11-21T00:30:15;7.70;99.90
32749;DHT22;19119;52.474;13.710;2023-11-21T00:32:41;7.80;99.90
32749;DHT22;19119;52.474;13.710;2023-11-21T00:35:06;7.80;99.90
32749;DHT22;19119;52.474;13.710;2023-11-21T00:37:32;7.60;99.90
32749;DHT22;19119;52.474;13.710;2023-11-21T00:39:57;7.60;99.90
32749;DHT22;19119;52.474;13.710;2023-11-21T00:42:23;7.70;99.90
32749;DHT22;19119;52.474;13.710;2023-11-21T00:44:48;7.60;99.90
32749;DHT22;19119;52.474;13.710;2023-11-21T00:47:14;7.50;99.90
32749;DHT22;19119;52.474;13.710;2023-11-21T00:49:39;7.50;99.90
32749;DHT22;19119;52.474;13.710;2023-11-21T00:52:05;7.50;99.90
32749;DHT22;19119;52.474;13.710;2023-11-21T00:54:30;7.50;99.90
32749;DHT22;19119;52.474;13.710;2023-11-21T00:56:56;7.50;99.90
32749;DHT22;19119;52.474;13.710;2023-11-21T00:59:21;7.50;99.90
32749;DHT22;19119;52.474;13.710;2023-11-21T01:01:48;7.30;99.90
32749;DHT22;19119;52.474;13.710;2023-11-21T01:04:13;7.40;99.90
32749;DHT22;19119;52.474;13.710;2023-11-21T01:06:39;7.30;99.90
32749;DHT22;19119;52.474;13.710;2023-11-21T01:09:04;7.40;99.90
32749;DHT22;19119;52.474;13.710;2023-11-21T01:11:36;7.10;99.90
32749;DHT22;19119;52.474;13.710;2023-11-21T01:14:02;7.10;99.90
32749;DHT22;19119;52.474;13.710;2023-11-21T01:16:28;7.10;99.90
32749;DHT22;19119;52.474;13.710;2023-11-21T01:18:54;7.20;99.90
32749;DHT22;19119;52.474;13.710;2023-11-21T01:21:19;7.30;99.90
32749;DHT22;19119;52.474;13.710;2023-11-21T01:23:44;7.20;99.90
32749;DHT22;19119;52.474;13.710;2023-11-21T01:26:10;7.10;99.90
32749;DHT22;19119;52.474;13.710;2023-11-21T01:28:35;7.10;99.90
32749;DHT22;19119;52.474;13.710;2023-11-21T01:31:01;7.00;99.90
32749;DHT22;19119;52.474;13.710;2023-11-21T01:33:26;7.00;99.90
32749;DHT22;19119;52.474;13.710;2023-11-21T01:35:51;7.00;99.90
32749;DHT22;19119;52.474;13.710;2023-11-21T01:38:20;6.90;99.90
32749;DHT22;19119;52.474;13.710;2023-11-21T01:40:45;6.80;99.90
32749;DHT22;19119;52.474;13.710;2023-11-21T01:43:11;6.80;99.90
32749;DHT22;19119;52.474;13.710;2023-11-21T01:45:36;6.80;99.90
32749;DHT22;19119;52.474;13.710;2023-11-21T01:48:02;6.70;99.90
32749;DHT22;19119;52.474;13.710;2023-11-21T01:50:28;6.70;99.90
32749;DHT22;19119;52.474;13.710;2023-11-21T01:52:54;6.70;99.90
32749;DHT22;19119;52.474;13.710;2023-11-21T01:55:20;6.80;99.90
32749;DHT22;19119;52.474;13.710;2023-11-21T01:57:46;6.80;99.90
32749;DHT22;19119;52.474;13.710;2023-11-21T02:00:11;6.70;99.90
32749;DHT22;19119;52.474;13.710;2023-11-21T02:02:48;6.70;99.90
32749;DHT22;19119;52.474;13.710;2023-11-21T02:05:14;6.70;99.90
32749;DHT22;19119;52.474;13.710;2023-11-21T02:07:40;6.60;99.90
32749;DHT22;19119;52.474;13.710;2023-11-21T02:10:08;6.60;99.90
32749;DHT22;19119;52.474;13.710;2023-11-21T02:12:34;6.60;99.90
32749;DHT22;19119;52.474;13.710;2023-11-21T02:15:02;6.60;99.90
32749;DHT22;19119;52.474;13.710;2023-11-21T02:17:30;6.60;99.90
32749;DHT22;19119;52.474;13.710;2023-11-21T02:19:55;6.60;99.90
32749;DHT22;19119;52.474;13.710;2023-11-21T02:22:21;6.50;99.90
32749;DHT22;19119;52.474;13.710;2023-11-21T02:24:47;6.60;99.90
32749;DHT22;19119;52.474;13.710;2023-11-21T02:27:13;6.60;99.90
32749;DHT22;19119;52.474;13.710;2023-11-21T02:29:38;6.60;99.90
32749;DHT22;19119;52.474;13.710;2023-11-21T02:32:04;6.50;99.90
32749;DHT22;19119;52.474;13.710;2023-11-21T02:34:30;6.60;99.90
32749;DHT22;19119;52.474;13.710;2023-11-21T02:36:56;6.50;99.90
32749;DHT22;19119;52.474;13.710;2023-11-21T02:39:22;6.50;99.90
32749;DHT22;19119;52.474;13.710;2023-11-21T02:41:47;6.20;99.90
32749;DHT22;19119;52.474;13.710;2023-11-21T02:44:13;6.20;99.90
32749;DHT22;19119;52.474;13.710;2023-11-21T02:46:38;6.10;99.90
32749;DHT22;19119;52.474;13.710;2023-11-21T02:49:05;6.10;99.90
32749;DHT22;19119;52.474;13.710;2023-11-21T02:51:35;6.10;99.90
32749;DHT22;19119;52.474;13.710;2023-11-21T02:54:01;6.20;99.90
32749;DHT22;19119;52.474;13.710;2023-11-21T02:56:28;6.20;99.90
32749;DHT22;19119;52.474;13.710;2023-11-21T02:58:55;6.10;99.90
32749;DHT22;19119;52.474;13.710;2023-11-21T03:01:20;6.20;99.90
32749;DHT22;19119;52.474;13.710;2023-11-21T03:03:46;6.20;99.90
32749;DHT22;19119;52.474;13.710;2023-11-21T03:06:19;6.30;99.90
32749;DHT22;19119;52.474;13.710;2023-11-21T03:08:45;6.10;99.90
32749;DHT22;19119;52.474;13.710;2023-11-21T03:11:11;6.10;99.90
32749;DHT22;19119;52.474;13.710;2023-11-21T03:13:38;6.20;99.90
32749;DHT22;19119;52.474;13.710;2023-11-21T03:16:04;6.20;99.90
32749;DHT22;19119;52.474;13.710;2023-11-21T03:18:30;6.20;99.90
32749;DHT22;19119;52.474;13.710;2023-11-21T03:20:55;6.00;99.90
32749;DHT22;19119;52.474;13.710;2023-11-21T03:23:20;6.00;99.90
32749;DHT22;19119;52.474;13.710;2023-11-21T03:25:46;5.90;99.90
32749;DHT22;19119;52.474;13.710;2023-11-21T03:28:11;5.90;99.90
32749;DHT22;19119;52.474;13.710;2023-11-21T03:30:37;5.80;99.90
32749;DHT22;19119;52.474;13.710;2023-11-21T03:33:02;5.90;99.90
32749;DHT22;19119;52.474;13.710;2023-11-21T03:35:28;6.10;99.90
32749;DHT22;19119;52.474;13.710;2023-11-21T03:37:53;6.10;99.90
32749;DHT22;19119;52.474;13.710;2023-11-21T03:40:19;6.10;99.90
32749;DHT22;19119;52.474;13.710;2023-11-21T03:42:46;6.00;99.90
32749;DHT22;19119;52.474;13.710;2023-11-21T03:45:12;5.90;99.90
32749;DHT22;19119;52.474;13.710;2023-11-21T03:47:38;5.70;99.90
32749;DHT22;19119;52.474;13.710;2023-11-21T03:50:03;5.70;99.90
32749;DHT22;19119;52.474;13.710;2023-11-21T03:52:29;5.80;99.90
32749;DHT22;19119;52.474;13.710;2023-11-21T03:54:55;5.80;99.90
32749;DHT22;19119;52.474;13.710;2023-11-21T03:57:20;5.70;99.90
32749;DHT22;19119;52.474;13.710;2023-11-21T03:59:46;5.70;99.90
32749;DHT22;19119;52.474;13.710;2023-11-21T04:02:11;5.50;99.90
32749;DHT22;19119;52.474;13.710;2023-11-21T04:04:37;5.60;99.90
32749;DHT22;19119;52.474;13.710;2023-11-21T04:07:02;5.60;99.90
32749;DHT22;19119;52.474;13.710;2023-11-21T04:09:28;5.40;99.90
32749;DHT22;19119;52.474;13.710;2023-11-21T04:11:53;5.40;99.90
32749;DHT22;19119;52.474;13.710;2023-11-21T04:14:19;5.40;99.90
32749;DHT22;19119;52.474;13.710;2023-11-21T04:16:45;5.40;99.90
32749;DHT22;19119;52.474;13.710;2023-11-21T04:19:10;5.30;99.90
32749;DHT22;19119;52.474;13.710;2023-11-21T04:21:38;5.40;99.90
32749;DHT22;19119;52.474;13.710;2023-11-21T04:24:04;5.40;99.90
32749;DHT22;19119;52.474;13.710;2023-11-21T04:26:30;5.40;99.90
32749;DHT22;19119;52.474;13.710;2023-11-21T04:28:55;5.40;99.90
32749;DHT22;19119;52.474;13.710;2023-11-21T04:31:21;5.50;99.90
32749;DHT22;19119;52.474;13.710;2023-11-21T04:33:46;5.50;99.90
32749;DHT22;19119;52.474;13.710;2023-11-21T04:36:12;5.40;99.90
32749;DHT22;19119;52.474;13.710;2023-11-21T04:38:37;5.50;99.90
32749;DHT22;19119;52.474;13.710;2023-11-21T04:41:02;5.30;99.90
32749;DHT22;19119;52.474;13.710;2023-11-21T04:43:28;5.40;99.90
32749;DHT22;19119;52.474;13.710;2023-11-21T04:45:54;5.30;99.90
32749;DHT22;19119;52.474;13.710;2023-11-21T04:48:20;5.20;99.90
32749;DHT22;19119;52.474;13.710;2023-11-21T04:50:45;5.30;99.90
32749;DHT22;19119;52.474;13.710;2023-11-21T04:53:11;5.10;99.90
32749;DHT22;19119;52.474;13.710;2023-11-21T04:55:39;5.20;99.90
32749;DHT22;19119;52.474;13.710;2023-11-21T04:58:04;5.30;99.90
32749;DHT22;19119;52.474;13.710;2023-11-21T05:00:30;5.20;99.90
32749;DHT22;19119;52.474;13.710;2023-11-21T05:02:55;5.20;99.90
32749;DHT22;19119;52.474;13.710;2023-11-21T05:05:21;5.10;99.90
32749;DHT22;19119;52.474;13.710;2023-11-21T05:07:46;5.10;99.90
32749;DHT22;19119;52.474;13.710;2023-11-21T05:10:11;5.10;99.90
32749;DHT22;19119;52.474;13.710;2023-11-21T05:12:40;5.20;99.90
32749;DHT22;19119;52.474;13.710;2023-11-21T05:15:05;5.20;99.90
32749;DHT22;19119;52.474;13.710;2023-11-21T05:17:35;5.20;99.90
32749;DHT22;19119;52.474;13.710;2023-11-21T05:20:00;5.00;99.90
32749;DHT22;19119;52.474;13.710;2023-11-21T05:22:28;5.00;99.90
32749;DHT22;19119;52.474;13.710;2023-11-21T05:24:54;5.00;99.90
32749;DHT22;19119;52.474;13.710;2023-11-21T05:27:19;4.90;99.90
32749;DHT22;19119;52.474;13.710;2023-11-21T05:29:45;5.00;99.90
32749;DHT22;19119;52.474;13.710;2023-11-21T05:32:10;5.00;99.90
32749;DHT22;19119;52.474;13.710;2023-11-21T05:34:35;5.00;99.90
32749;DHT22;19119;52.474;13.710;2023-11-21T05:37:01;4.90;99.90
32749;DHT22;19119;52.474;13.710;2023-11-21T05:39:26;4.80;99.90
32749;DHT22;19119;52.474;13.710;2023-11-21T05:41:53;5.00;99.90
32749;DHT22;19119;52.474;13.710;2023-11-21T05:44:19;5.10;99.90
32749;DHT22;19119;52.474;13.710;2023-11-21T05:46:44;5.10;99.90
32749;DHT22;19119;52.474;13.710;2023-11-21T05:49:10;5.00;99.90
32749;DHT22;19119;52.474;13.710;2023-11-21T05:51:36;5.00;99.90
32749;DHT22;19119;52.474;13.710;2023-11-21T05:54:02;5.10;99.90
32749;DHT22;19119;52.474;13.710;2023-11-21T05:56:27;5.10;99.90
32749;DHT22;19119;52.474;13.710;2023-11-21T05:58:52;5.10;99.90
32749;DHT22;19119;52.474;13.710;2023-11-21T06:01:18;5.00;99.90
32749;DHT22;19119;52.474;13.710;2023-11-21T06:03:43;5.00;99.90
32749;DHT22;19119;52.474;13.710;2023-11-21T06:06:09;5.00;99.90
32749;DHT22;19119;52.474;13.710;2023-11-21T06:08:34;5.10;99.90
32749;DHT22;19119;52.474;13.710;2023-11-21T06:11:00;5.20;99.90
32749;DHT22;19119;52.474;13.710;2023-11-21T06:13:26;5.10;99.90
32749;DHT22;19119;52.474;13.710;2023-11-21T06:15:51;5.20;99.90
32749;DHT22;19119;52.474;13.710;2023-11-21T06:18:17;5.10;99.90
32749;DHT22;19119;52.474;13.710;2023-11-21T06:20:45;5.20;99.90
32749;DHT22;19119;52.474;13.710;2023-11-21T06:23:10;5.20;99.90
32749;DHT22;19119;52.474;13.710;2023-11-21T06:25:36;5.00;99.90
32749;DHT22;19119;52.474;13.710;2023-11-21T06:28:02;5.10;99.90
32749;DHT22;19119;52.474;13.710;2023-11-21T06:30:27;5.00;99.90
32749;DHT22;19119;52.474;13.710;2023-11-21T06:32:54;4.90;99.90
32749;DHT22;19119;52.474;13.710;2023-11-21T06:35:20;4.70;99.90
32749;DHT22;19119;52.474;13.710;2023-11-21T06:37:45;4.70;99.90
32749;DHT22;19119;52.474;13.710;2023-11-21T06:40:13;4.70;99.90
32749;DHT22;19119;52.474;13.710;2023-11-21T06:42:40;4.80;99.90
32749;DHT22;19119;52.474;13.710;2023-11-21T06:45:06;4.80;99.90
32749;DHT22;19119;52.474;13.710;2023-11-21T06:47:32;4.70;99.90
32749;DHT22;19119;52.474;13.710;2023-11-21T06:49:58;4.80;99.90
32749;DHT22;19119;52.474;13.710;2023-11-21T06:52:23;4.70;99.90
32749;DHT22;19119;52.474;13.710;2023-11-21T06:54:49;4.70;99.90
32749;DHT22;19119;52.474;13.710;2023-11-21T06:57:17;4.70;99.90
32749;DHT22;19119;52.474;13.710;2023-11-21T06:59:43;4.70;99.90
32749;DHT22;19119;52.474;13.710;2023-11-21T07:02:08;4.70;99.90
32749;DHT22;19119;52.474;13.710;2023-11-21T07:04:34;4.70;99.90
32749;DHT22;19119;52.474;13.710;2023-11-21T07:07:01;4.70;99.90
32749;DHT22;19119;52.474;13.710;2023-11-21T07:09:27;4.70;99.90
32749;DHT22;19119;52.474;13.710;2023-11-21T07:11:53;4.70;99.90
32749;DHT22;19119;52.474;13.710;2023-11-21T07:14:18;4.70;99.90
32749;DHT22;19119;52.474;13.710;2023-11-21T07:16:45;4.80;99.90
32749;DHT22;19119;52.474;13.710;2023-11-21T07:19:11;4.70;99.90
32749;DHT22;19119;52.474;13.710;2023-11-21T07:21:37;4.80;99.90
32749;DHT22;19119;52.474;13.710;2023-11-21T07:24:03;4.70;99.90
32749;DHT22;19119;52.474;13.710;2023-11-21T07:26:28;4.70;99.90
32749;DHT22;19119;52.474;13.710;2023-11-21T07:28:54;4.80;99.90
32749;DHT22;19119;52.474;13.710;2023-11-21T07:31:19;4.70;99.90
32749;DHT22;19119;52.474;13.710;2023-11-21T07:33:45;4.80;99.90
32749;DHT22;19119;52.474;13.710;2023-11-21T07:36:12;4.70;99.90
32749;DHT22;19119;52.474;13.710;2023-11-21T07:38:38;4.80;99.90
32749;DHT22;19119;52.474;13.710;2023-11-21T07:41:04;4.80;99.90
32749;DHT22;19119;52.474;13.710;2023-11-21T07:43:30;4.90;99.90
32749;DHT22;19119;52.474;13.710;2023-11-21T07:46:03;4.80;99.90
32749;DHT22;19119;52.474;13.710;2023-11-21T07:48:31;4.80;99.90
32749;DHT22;19119;52.474;13.710;2023-11-21T07:50:57;4.70;99.90
32749;DHT22;19119;52.474;13.710;2023-11-21T07:53:26;4.80;99.90
32749;DHT22;19119;52.474;13.710;2023-11-21T07:55:55;4.80;99.90
32749;DHT22;19119;52.474;13.710;2023-11-21T07:58:21;4.90;99.90
32749;DHT22;19119;52.474;13.710;2023-11-21T08:00:46;4.70;99.90
32749;DHT22;19119;52.474;13.710;2023-11-21T08:03:15;4.80;99.90
32749;DHT22;19119;52.474;13.710;2023-11-21T08:05:41;4.80;99.90
32749;DHT22;19119;52.474;13.710;2023-11-21T08:08:06;4.90;99.90
32749;DHT22;19119;52.474;13.710;2023-11-21T08:10:32;4.80;99.90
32749;DHT22;19119;52.474;13.710;2023-11-21T08:12:58;4.80;99.90
32749;DHT22;19119;52.474;13.710;2023-11-21T08:15:23;4.60;99.90
32749;DHT22;19119;52.474;13.710;2023-11-21T08:17:49;4.70;99.90
32749;DHT22;19119;52.474;13.710;2023-11-21T08:20:14;4.70;99.90
32749;DHT22;19119;52.474;13.710;2023-11-21T08:22:46;4.60;99.90
32749;DHT22;19119;52.474;13.710;2023-11-21T08:25:12;4.60;99.90
32749;DHT22;19119;52.474;13.710;2023-11-21T08:27:38;4.60;99.90
32749;DHT22;19119;52.474;13.710;2023-11-21T08:30:04;4.60;99.90
32749;DHT22;19119;52.474;13.710;2023-11-21T08:32:29;4.70;99.90
32749;DHT22;19119;52.474;13.710;2023-11-21T08:34:58;4.50;99.90
32749;DHT22;19119;52.474;13.710;2023-11-21T08:37:24;4.40;99.90
32749;DHT22;19119;52.474;13.710;2023-11-21T08:39:50;4.50;99.90
32749;DHT22;19119;52.474;13.710;2023-11-21T08:42:18;4.40;99.90
32749;DHT22;19119;52.474;13.710;2023-11-21T08:44:43;4.60;99.90
32749;DHT22;19119;52.474;13.710;2023-11-21T08:47:09;4.60;99.90
32749;DHT22;19119;52.474;13.710;2023-11-21T08:49:34;4.60;99.90
32749;DHT22;19119;52.474;13.710;2023-11-21T08:52:00;4.70;99.90
32749;DHT22;19119;52.474;13.710;2023-11-21T08:54:25;4.70;99.90
32749;DHT22;19119;52.474;13.710;2023-11-21T08:56:51;4.70;99.90
32749;DHT22;19119;52.474;13.710;2023-11-21T08:59:17;4.50;99.90
32749;DHT22;19119;52.474;13.710;2023-11-21T09:01:42;4.60;99.90
32749;DHT22;19119;52.474;13.710;2023-11-21T09:04:08;4.40;99.90
32749;DHT22;19119;52.474;13.710;2023-11-21T09:06:33;4.40;99.90
32749;DHT22;19119;52.474;13.710;2023-11-21T09:08:58;4.50;99.90
32749;DHT22;19119;52.474;13.710;2023-11-21T09:11:24;4.50;99.90
32749;DHT22;19119;52.474;13.710;2023-11-21T09:13:50;4.50;99.90
32749;DHT22;19119;52.474;13.710;2023-11-21T09:16:16;4.50;99.90
32749;DHT22;19119;52.474;13.710;2023-11-21T09:18:42;4.50;99.90
32749;DHT22;19119;52.474;13.710;2023-11-21T09:21:07;4.50;99.90
32749;DHT22;19119;52.474;13.710;2023-11-21T09:23:34;4.60;99.90
32749;DHT22;19119;52.474;13.710;2023-11-21T09:25:59;4.70;99.90
32749;DHT22;19119;52.474;13.710;2023-11-21T09:28:26;4.90;99.90
32749;DHT22;19119;52.474;13.710;2023-11-21T09:30:52;4.80;99.90
32749;DHT22;19119;52.474;13.710;2023-11-21T09:33:18;4.90;99.90
32749;DHT22;19119;52.474;13.710;2023-11-21T09:35:44;4.90;99.90
32749;DHT22;19119;52.474;13.710;2023-11-21T09:38:09;4.60;99.90
32749;DHT22;19119;52.474;13.710;2023-11-21T09:40:36;4.60;99.90
32749;DHT22;19119;52.474;13.710;2023-11-21T09:43:05;4.60;99.90
32749;DHT22;19119;52.474;13.710;2023-11-21T09:45:36;4.50;99.90
32749;DHT22;19119;52.474;13.710;2023-11-21T09:48:03;4.50;99.90
32749;DHT22;19119;52.474;13.710;2023-11-21T09:50:30;4.60;99.90
32749;DHT22;19119;52.474;13.710;2023-11-21T09:53:08;4.50;99.90
32749;DHT22;19119;52.474;13.710;2023-11-21T09:55:36;4.30;99.90
32749;DHT22;19119;52.474;13.710;2023-11-21T09:58:04;4.40;99.90
32749;DHT22;19119;52.474;13.710;2023-11-21T10:00:32;4.40;99.90
32749;DHT22;19119;52.474;13.710;2023-11-21T10:02:58;4.40;99.90
32749;DHT22;19119;52.474;13.710;2023-11-21T10:05:24;4.60;99.90
32749;DHT22;19119;52.474;13.710;2023-11-21T10:07:50;4.80;99.90
32749;DHT22;19119;52.474;13.710;2023-11-21T10:10:17;4.90;99.90
32749;DHT22;19119;52.474;13.710;2023-11-21T10:12:43;4.90;99.90
32749;DHT22;19119;52.474;13.710;2023-11-21T10:15:10;4.90;99.90
32749;DHT22;19119;52.474;13.710;2023-11-21T10:17:37;4.90;99.90
32749;DHT22;19119;52.474;13.710;2023-11-21T10:20:08;4.80;99.90
32749;DHT22;19119;52.474;13.710;2023-11-21T10:22:39;4.70;99.90
32749;DHT22;19119;52.474;13.710;2023-11-21T10:25:06;4.70;99.90
32749;DHT22;19119;52.474;13.710;2023-11-21T10:27:33;4.70;99.90
32749;DHT22;19119;52.474;13.710;2023-11-21T10:30:00;4.70;99.90
32749;DHT22;19119;52.474;13.710;2023-11-21T10:32:28;4.60;99.90
32749;DHT22;19119;52.474;13.710;2023-11-21T10:34:57;4.50;99.90
32749;DHT22;19119;52.474;13.710;2023-11-21T10:37:23;4.60;99.90
32749;DHT22;19119;52.474;13.710;2023-11-21T10:39:48;4.50;99.90
32749;DHT22;19119;52.474;13.710;2023-11-21T10:42:14;4.50;99.90
32749;DHT22;19119;52.474;13.710;2023-11-21T10:44:41;4.50;99.90
32749;DHT22;19119;52.474;13.710;2023-11-21T10:47:08;4.60;99.90
32749;DHT22;19119;52.474;13.710;2023-11-21T10:49:33;4.60;99.90
32749;DHT22;19119;52.474;13.710;2023-11-21T10:51:59;4.60;99.90
32749;DHT22;19119;52.474;13.710;2023-11-21T10:54:25;4.60;99.90
32749;DHT22;19119;52.474;13.710;2023-11-21T10:56:52;4.50;99.90
32749;DHT22;19119;52.474;13.710;2023-11-21T10:59:18;4.50;99.90
32749;DHT22;19119;52.474;13.710;2023-11-21T11:01:46;4.60;99.90
32749;DHT22;19119;52.474;13.710;2023-11-21T11:04:12;4.30;99.90
32749;DHT22;19119;52.474;13.710;2023-11-21T11:06:41;4.30;99.90
32749;DHT22;19119;52.474;13.710;2023-11-21T11:09:06;4.40;99.90
32749;DHT22;19119;52.474;13.710;2023-11-21T11:11:33;4.30;99.90
32749;DHT22;19119;52.474;13.710;2023-11-21T11:13:59;4.40;99.90
32749;DHT22;19119;52.474;13.710;2023-11-21T11:16:25;4.40;99.90
32749;DHT22;19119;52.474;13.710;2023-11-21T11:18:51;4.40;99.90
32749;DHT22;19119;52.474;13.710;2023-11-21T11:26:55;4.30;99.90
32749;DHT22;19119;52.474;13.710;2023-11-21T11:34:57;4.40;99.90
32749;DHT22;19119;52.474;13.710;2023-11-21T11:37:25;4.40;99.90
32749;DHT22;19119;52.474;13.710;2023-11-21T11:39:50;4.40;99.90
32749;DHT22;19119;52.474;13.710;2023-11-21T11:42:17;4.40;99.90
32749;DHT22;19119;52.474;13.710;2023-11-21T11:47:19;4.10;99.90
32749;DHT22;19119;52.474;13.710;2023-11-21T11:49:54;4.10;99.90
32749;DHT22;19119;52.474;13.710;2023-11-21T11:52:33;4.10;99.90
32749;DHT22;19119;52.474;13.710;2023-11-21T11:55:00;4.10;99.90
32749;DHT22;19119;52.474;13.710;2023-11-21T11:57:25;4.20;99.90
32749;DHT22;19119;52.474;13.710;2023-11-21T12:02:36;4.00;99.90
32749;DHT22;19119;52.474;13.710;2023-11-21T12:05:08;4.00;99.90
32749;DHT22;19119;52.474;13.710;2023-11-21T12:07:41;4.10;99.90
32749;DHT22;19119;52.474;13.710;2023-11-21T12:10:07;4.10;99.90
32749;DHT22;19119;52.474;13.710;2023-11-21T12:12:36;4.10;99.90
32749;DHT22;19119;52.474;13.710;2023-11-21T12:15:04;4.20;99.90
32749;DHT22;19119;52.474;13.710;2023-11-21T12:17:30;4.30;99.90
32749;DHT22;19119;52.474;13.710;2023-11-21T12:20:01;4.20;99.90
32749;DHT22;19119;52.474;13.710;2023-11-21T12:22:28;4.20;99.90
32749;DHT22;19119;52.474;13.710;2023-11-21T12:24:54;4.20;99.90
32749;DHT22;19119;52.474;13.710;2023-11-21T12:27:20;4.30;99.90
32749;DHT22;19119;52.474;13.710;2023-11-21T12:29:46;4.30;99.90
32749;DHT22;19119;52.474;13.710;2023-11-21T12:32:11;4.20;99.90
32749;DHT22;19119;52.474;13.710;2023-11-21T12:34:36;4.30;99.90
32749;DHT22;19119;52.474;13.710;2023-11-21T12:37:04;4.30;99.90
32749;DHT22;19119;52.474;13.710;2023-11-21T12:39:29;4.20;99.90
32749;DHT22;19119;52.474;13.710;2023-11-21T12:41:55;4.20;99.90
32749;DHT22;19119;52.474;13.710;2023-11-21T12:44:20;4.20;99.90
32749;DHT22;19119;52.474;13.710;2023-11-21T12:46:49;4.30;99.90
32749;DHT22;19119;52.474;13.710;2023-11-21T12:49:15;4.10;99.90
32749;DHT22;19119;52.474;13.710;2023-11-21T12:51:43;4.00;99.90
32749;DHT22;19119;52.474;13.710;2023-11-21T12:54:10;3.90;99.90
32749;DHT22;19119;52.474;13.710;2023-11-21T12:56:38;3.90;99.90
32749;DHT22;19119;52.474;13.710;2023-11-21T12:59:04;3.90;99.90
32749;DHT22;19119;52.474;13.710;2023-11-21T13:01:30;3.80;99.90
32749;DHT22;19119;52.474;13.710;2023-11-21T13:03:57;3.90;99.90
32749;DHT22;19119;52.474;13.710;2023-11-21T13:06:23;3.80;99.90
32749;DHT22;19119;52.474;13.710;2023-11-21T13:08:51;3.80;99.90
32749;DHT22;19119;52.474;13.710;2023-11-21T13:11:17;3.90;99.90
32749;DHT22;19119;52.474;13.710;2023-11-21T13:13:42;3.90;99.90
32749;DHT22;19119;52.474;13.710;2023-11-21T13:16:09;3.90;99.90
32749;DHT22;19119;52.474;13.710;2023-11-21T13:18:35;3.90;99.90
32749;DHT22;19119;52.474;13.710;2023-11-21T13:21:01;3.90;99.90
32749;DHT22;19119;52.474;13.710;2023-11-21T13:23:29;3.80;99.90
32749;DHT22;19119;52.474;13.710;2023-11-21T13:25:54;3.80;99.90
32749;DHT22;19119;52.474;13.710;2023-11-21T13:28:20;3.80;99.90
32749;DHT22;19119;52.474;13.710;2023-11-21T13:30:47;3.70;99.90
32749;DHT22;19119;52.474;13.710;2023-11-21T13:33:13;3.80;99.90
32749;DHT22;19119;52.474;13.710;2023-11-21T13:35:43;3.60;99.90
32749;DHT22;19119;52.474;13.710;2023-11-21T13:38:11;3.50;99.90
32749;DHT22;19119;52.474;13.710;2023-11-21T13:40:38;3.60;99.90
32749;DHT22;19119;52.474;13.710;2023-11-21T13:43:12;3.50;99.90
32749;DHT22;19119;52.474;13.710;2023-11-21T13:45:42;3.40;99.90
32749;DHT22;19119;52.474;13.710;2023-11-21T13:48:08;3.50;99.90
32749;DHT22;19119;52.474;13.710;2023-11-21T13:50:39;3.50;99.90
32749;DHT22;19119;52.474;13.710;2023-11-21T13:53:10;3.50;99.90
32749;DHT22;19119;52.474;13.710;2023-11-21T13:55:51;3.50;99.90
32749;DHT22;19119;52.474;13.710;2023-11-21T13:58:19;3.40;99.90
32749;DHT22;19119;52.474;13.710;2023-11-21T14:00:48;3.50;99.90
32749;DHT22;19119;52.474;13.710;2023-11-21T14:03:21;3.50;99.90
32749;DHT22;19119;52.474;13.710;2023-11-21T14:05:50;3.40;99.90
32749;DHT22;19119;52.474;13.710;2023-11-21T14:08:22;3.40;99.90
32749;DHT22;19119;52.474;13.710;2023-11-21T14:10:56;3.30;99.90
32749;DHT22;19119;52.474;13.710;2023-11-21T14:13:26;3.20;99.90
32749;DHT22;19119;52.474;13.710;2023-11-21T14:15:51;3.30;99.90
32749;DHT22;19119;52.474;13.710;2023-11-21T14:18:25;3.10;99.90
32749;DHT22;19119;52.474;13.710;2023-11-21T14:21:03;3.10;99.90
32749;DHT22;19119;52.474;13.710;2023-11-21T14:23:31;3.20;99.90
32749;DHT22;19119;52.474;13.710;2023-11-21T14:25:56;3.30;99.90
32749;DHT22;19119;52.474;13.710;2023-11-21T14:28:22;3.40;99.90
32749;DHT22;19119;52.474;13.710;2023-11-21T14:30:48;3.40;99.90
32749;DHT22;19119;52.474;13.710;2023-11-21T14:33:13;3.30;99.90
32749;DHT22;19119;52.474;13.710;2023-11-21T14:35:39;3.40;99.90
32749;DHT22;19119;52.474;13.710;2023-11-21T14:38:04;3.20;99.90
32749;DHT22;19119;52.474;13.710;2023-11-21T14:40:33;3.20;99.90
32749;DHT22;19119;52.474;13.710;2023-11-21T14:43:04;3.10;99.90
32749;DHT22;19119;52.474;13.710;2023-11-21T14:45:33;2.90;99.90
32749;DHT22;19119;52.474;13.710;2023-11-21T14:47:59;2.90;99.90
32749;DHT22;19119;52.474;13.710;2023-11-21T14:50:30;2.90;99.90
32749;DHT22;19119;52.474;13.710;2023-11-21T14:53:11;3.00;99.90
32749;DHT22;19119;52.474;13.710;2023-11-21T14:55:38;2.90;99.90
32749;DHT22;19119;52.474;13.710;2023-11-21T14:58:16;2.90;99.90
32749;DHT22;19119;52.474;13.710;2023-11-21T15:00:48;2.90;99.90
32749;DHT22;19119;52.474;13.710;2023-11-21T15:03:16;2.90;99.90
32749;DHT22;19119;52.474;13.710;2023-11-21T15:05:57;2.90;99.90
32749;DHT22;19119;52.474;13.710;2023-11-21T15:08:23;3.00;99.90
32749;DHT22;19119;52.474;13.710;2023-11-21T15:10:55;2.90;99.90
32749;DHT22;19119;52.474;13.710;2023-11-21T15:13:21;2.90;99.90
32749;DHT22;19119;52.474;13.710;2023-11-21T15:15:52;2.90;99.90
32749;DHT22;19119;52.474;13.710;2023-11-21T15:18:19;2.80;99.90
32749;DHT22;19119;52.474;13.710;2023-11-21T15:20:45;2.80;99.90
32749;DHT22;19119;52.474;13.710;2023-11-21T15:23:10;2.90;99.90
32749;DHT22;19119;52.474;13.710;2023-11-21T15:25:38;2.80;99.90
32749;DHT22;19119;52.474;13.710;2023-11-21T15:28:03;2.90;99.90
32749;DHT22;19119;52.474;13.710;2023-11-21T15:30:30;2.90;99.90
32749;DHT22;19119;52.474;13.710;2023-11-21T15:32:57;2.90;99.90
32749;DHT22;19119;52.474;13.710;2023-11-21T15:35:23;2.70;99.90
32749;DHT22;19119;52.474;13.710;2023-11-21T15:37:48;2.80;99.90
32749;DHT22;19119;52.474;13.710;2023-11-21T15:40:14;2.80;99.90
32749;DHT22;19119;52.474;13.710;2023-11-21T15:42:41;2.80;99.90